createdAt,value
2022-10-24T00:00:54.123Z,1.30
2022-10-24T00:03:22.059Z,1.50
2022-10-24T00:05:50.066Z,1.27
2022-10-24T00:08:19.486Z,1.23
2022-10-24T00:10:48.947Z,1.50
2022-10-24T00:13:18.102Z,1.53
2022-10-24T00:15:47.026Z,1.20
2022-10-24T00:18:15.117Z,1.27
2022-10-24T00:23:16.266Z,1.37
2022-10-24T00:25:45.542Z,1.33
2022-10-24T00:28:13.518Z,1.47
2022-10-24T00:30:41.470Z,1.63
2022-10-24T00:33:09.390Z,1.30
2022-10-24T00:35:37.281Z,1.37
2022-10-24T00:38:05.232Z,1.20
2022-10-24T00:40:33.121Z,1.20
2022-10-24T00:43:02.418Z,1.50
2022-10-24T00:45:40.911Z,1.40
2022-10-24T00:48:19.449Z,1.70
2022-10-24T00:50:48.387Z,1.60
2022-10-24T00:53:17.173Z,1.73
2022-10-24T00:55:48.169Z,1.43
2022-10-24T00:58:18.319Z,1.50
2022-10-24T01:00:46.357Z,1.70
2022-10-24T01:03:14.262Z,1.70
2022-10-24T01:05:51.965Z,2.30
2022-10-24T01:08:26.135Z,1.57
2022-10-24T01:10:59.069Z,1.70
2022-10-24T01:13:34.432Z,1.70
2022-10-24T01:16:07.446Z,1.43
2022-10-24T01:18:39.802Z,1.67
2022-10-24T01:21:14.241Z,1.27
2022-10-24T01:24:30.190Z,1.40
2022-10-24T01:27:28.994Z,1.70
2022-10-24T01:30:06.727Z,1.30
2022-10-24T01:32:39.271Z,1.47
2022-10-24T01:35:13.767Z,1.67
2022-10-24T01:37:45.623Z,2.23
2022-10-24T01:40:15.974Z,1.50
2022-10-24T01:42:44.493Z,1.60
2022-10-24T01:45:25.364Z,1.60
2022-10-24T01:47:55.929Z,1.53
2022-10-24T01:50:25.050Z,1.40
2022-10-24T01:52:53.325Z,1.50
2022-10-24T01:55:21.433Z,1.37
2022-10-24T01:57:49.371Z,1.90
2022-10-24T02:00:22.036Z,1.47
2022-10-24T02:02:52.913Z,1.50
2022-10-24T02:05:23.419Z,1.73
2022-10-24T02:07:54.370Z,1.20
2022-10-24T02:10:24.512Z,1.30
2022-10-24T02:12:55.502Z,1.50
2022-10-24T02:15:26.828Z,1.60
2022-10-24T02:17:55.585Z,1.40
2022-10-24T02:20:28.245Z,1.60
2022-10-24T02:22:59.346Z,1.60
2022-10-24T02:25:31.470Z,1.30
2022-10-24T02:28:05.870Z,1.50
2022-10-24T02:30:37.455Z,1.70
2022-10-24T02:33:05.667Z,1.63
2022-10-24T02:35:36.341Z,1.50
2022-10-24T02:38:07.096Z,1.63
2022-10-24T02:40:35.910Z,1.77
2022-10-24T02:43:05.652Z,1.60
2022-10-24T02:45:35.309Z,1.30
2022-10-24T02:48:07.072Z,1.50
2022-10-24T02:50:36.297Z,1.70
2022-10-24T02:53:04.278Z,1.70
2022-10-24T02:55:32.293Z,1.40
2022-10-24T02:58:00.190Z,1.50
2022-10-24T03:00:28.148Z,1.53
2022-10-24T03:02:57.501Z,1.50
2022-10-24T03:05:25.443Z,1.63
2022-10-24T03:07:53.342Z,1.57
2022-10-24T03:10:21.288Z,1.63
2022-10-24T03:12:49.246Z,2.20
2022-10-24T03:15:17.713Z,1.50
2022-10-24T03:17:49.124Z,1.40
2022-10-24T03:20:18.568Z,1.57
2022-10-24T03:22:46.466Z,2.67
2022-10-24T03:25:14.382Z,1.53
2022-10-24T03:27:43.111Z,1.83
2022-10-24T03:30:12.246Z,1.43
2022-10-24T03:35:23.543Z,1.60
2022-10-24T03:37:51.445Z,1.53
2022-10-24T03:40:19.470Z,1.47
2022-10-24T03:42:47.777Z,1.77
2022-10-24T03:45:16.170Z,2.00
2022-10-24T03:47:44.057Z,1.60
2022-10-24T03:50:11.921Z,1.70
2022-10-24T03:52:41.197Z,1.53
2022-10-24T03:55:09.878Z,1.40
2022-10-24T03:57:37.846Z,1.50
2022-10-24T04:00:07.135Z,1.40
2022-10-24T04:02:37.063Z,1.87
2022-10-24T04:05:07.863Z,1.90
2022-10-24T04:07:35.774Z,1.50
2022-10-24T04:10:05.373Z,1.50
2022-10-24T04:12:33.429Z,2.10
2022-10-24T04:15:04.704Z,2.17
2022-10-24T04:17:33.110Z,2.07
2022-10-24T04:20:01.028Z,2.13
2022-10-24T04:22:29.120Z,1.47
2022-10-24T04:24:56.986Z,1.90
2022-10-24T04:27:26.318Z,1.70
2022-10-24T04:29:54.238Z,1.80
2022-10-24T04:32:22.138Z,2.17
2022-10-24T04:34:50.203Z,1.93
2022-10-24T04:37:18.102Z,1.70
2022-10-24T04:39:45.967Z,2.00
2022-10-24T04:42:13.869Z,1.87
2022-10-24T04:44:43.121Z,2.10
2022-10-24T04:47:11.123Z,1.70
2022-10-24T04:49:39.060Z,2.20
2022-10-24T04:52:07.237Z,2.00
2022-10-24T04:54:35.162Z,1.60
2022-10-24T04:57:03.164Z,1.57
2022-10-24T04:59:31.165Z,1.70
2022-10-24T05:02:00.457Z,2.20
2022-10-24T05:04:28.388Z,1.87
2022-10-24T05:06:56.266Z,2.27
2022-10-24T05:09:24.176Z,1.90
2022-10-24T05:11:52.104Z,1.87
2022-10-24T05:14:20.002Z,2.00
2022-10-24T05:16:49.298Z,2.30
2022-10-24T05:19:19.697Z,1.70
2022-10-24T05:21:47.734Z,2.93
2022-10-24T05:24:15.638Z,2.00
2022-10-24T05:26:43.530Z,2.00
2022-10-24T05:29:11.488Z,1.80
2022-10-24T05:31:39.500Z,1.70
2022-10-24T05:34:07.394Z,1.67
2022-10-24T05:36:36.684Z,2.10
2022-10-24T05:39:04.972Z,1.90
2022-10-24T05:41:32.928Z,1.93
2022-10-24T05:44:00.831Z,1.97
2022-10-24T05:46:28.721Z,1.97
2022-10-24T05:48:56.633Z,1.90
2022-10-24T05:51:24.529Z,1.60
2022-10-24T05:53:53.871Z,1.83
2022-10-24T05:56:21.810Z,1.90
2022-10-24T05:58:49.698Z,1.70
2022-10-24T06:01:17.867Z,2.13
2022-10-24T06:03:46.629Z,2.13
2022-10-24T06:06:14.513Z,1.90
2022-10-24T06:08:42.417Z,1.93
2022-10-24T06:11:12.474Z,1.97
2022-10-24T06:13:40.498Z,2.77
2022-10-24T06:16:09.083Z,1.80
2022-10-24T06:18:37.023Z,1.67
2022-10-24T06:21:07.460Z,2.33
2022-10-24T06:23:35.690Z,2.00
2022-10-24T06:26:03.661Z,2.30
2022-10-24T06:28:32.907Z,2.07
2022-10-24T06:31:03.380Z,1.70
2022-10-24T06:33:31.483Z,1.90
2022-10-24T06:36:00.685Z,1.90
2022-10-24T06:38:28.612Z,1.93
2022-10-24T06:40:56.625Z,2.10
2022-10-24T06:43:24.726Z,1.97
2022-10-24T06:45:55.517Z,2.20
2022-10-24T06:48:23.437Z,2.03
2022-10-24T06:50:51.317Z,2.00
2022-10-24T06:55:51.990Z,1.70
2022-10-24T06:58:19.865Z,1.70
2022-10-24T07:00:47.804Z,1.80
2022-10-24T07:03:17.445Z,1.90
2022-10-24T07:05:45.373Z,1.70
2022-10-24T07:08:13.253Z,2.00
2022-10-24T07:10:41.169Z,1.50
2022-10-24T07:13:09.294Z,1.80
2022-10-24T07:15:37.229Z,2.27
2022-10-24T07:18:05.251Z,2.40
2022-10-24T07:20:34.532Z,2.00
2022-10-24T07:23:02.506Z,2.00
2022-10-24T07:25:30.374Z,1.73
2022-10-24T07:27:58.289Z,1.90
2022-10-24T07:30:26.450Z,1.77
2022-10-24T07:32:55.641Z,2.00
2022-10-24T07:35:24.177Z,1.90
2022-10-24T07:37:53.817Z,1.73
2022-10-24T07:40:21.778Z,1.90
2022-10-24T07:42:49.682Z,1.83
2022-10-24T07:45:17.685Z,4.00
2022-10-24T07:47:45.782Z,2.60
2022-10-24T07:50:15.680Z,1.90
2022-10-24T07:52:43.612Z,1.80
2022-10-24T07:55:12.981Z,1.87
2022-10-24T07:57:40.881Z,2.40
2022-10-24T08:00:10.011Z,2.00
2022-10-24T08:02:37.941Z,2.00
2022-10-24T08:05:06.638Z,1.70
2022-10-24T08:07:36.828Z,2.10
2022-10-24T08:10:05.546Z,2.13
2022-10-24T08:12:35.402Z,2.27
2022-10-24T08:15:03.918Z,1.80
2022-10-24T08:17:31.840Z,1.87
2022-10-24T08:19:59.917Z,2.20
2022-10-24T08:22:27.794Z,1.63
2022-10-24T08:24:55.674Z,2.10
2022-10-24T08:27:23.574Z,2.23
2022-10-24T08:29:52.930Z,1.80
2022-10-24T08:32:20.813Z,1.80
2022-10-24T08:34:48.689Z,2.10
2022-10-24T08:37:16.585Z,1.70
2022-10-24T08:39:44.599Z,1.43
2022-10-24T08:42:15.289Z,1.90
2022-10-24T08:44:44.644Z,1.70
2022-10-24T08:47:20.837Z,1.50
2022-10-24T08:49:52.427Z,1.40
2022-10-24T08:52:25.693Z,2.00
2022-10-24T08:54:54.261Z,2.67
2022-10-24T08:57:25.534Z,1.77
2022-10-24T08:59:56.428Z,2.20
2022-10-24T09:02:27.451Z,2.10
2022-10-24T09:04:58.877Z,1.90
2022-10-24T09:07:27.340Z,1.80
2022-10-24T09:10:04.899Z,1.50
2022-10-24T09:12:33.849Z,1.50
2022-10-24T09:15:02.018Z,1.40
2022-10-24T09:17:34.381Z,1.57
2022-10-24T09:20:08.658Z,1.70
2022-10-24T09:22:39.453Z,1.87
2022-10-24T09:25:13.633Z,2.00
2022-10-24T09:27:43.863Z,1.80
2022-10-24T09:30:18.207Z,1.80
2022-10-24T09:32:47.995Z,1.60
2022-10-24T09:35:19.959Z,1.33
2022-10-24T09:37:55.259Z,1.53
2022-10-24T09:40:25.386Z,1.20
2022-10-24T09:42:59.059Z,1.67
2022-10-24T09:45:40.534Z,1.30
2022-10-24T09:48:19.418Z,1.93
2022-10-24T09:50:48.741Z,1.60
2022-10-24T09:53:26.285Z,1.60
2022-10-24T09:55:56.338Z,1.50
2022-10-24T09:58:35.948Z,1.80
2022-10-24T10:01:07.075Z,1.43
2022-10-24T10:03:36.856Z,1.30
2022-10-24T10:06:16.058Z,1.40
2022-10-24T10:12:02.734Z,1.30
2022-10-24T10:14:32.331Z,1.20
2022-10-24T10:17:02.528Z,1.23
2022-10-24T10:19:37.049Z,1.20
2022-10-24T10:22:11.162Z,1.13
2022-10-24T10:24:40.849Z,1.73
2022-10-24T10:27:27.597Z,1.30
2022-10-24T10:30:17.905Z,1.20
2022-10-24T10:32:51.657Z,1.00
2022-10-24T10:35:24.263Z,1.33
2022-10-24T10:37:57.164Z,1.30
2022-10-24T10:40:31.503Z,1.40
2022-10-24T10:43:18.384Z,1.23
2022-10-24T10:45:48.633Z,1.30
2022-10-24T10:48:33.959Z,1.00
2022-10-24T10:51:08.520Z,1.27
2022-10-24T10:53:40.672Z,1.27
2022-10-24T10:56:17.564Z,1.47
2022-10-24T10:58:51.984Z,1.40
2022-10-24T11:01:26.049Z,0.97
2022-10-24T11:03:59.881Z,1.40
2022-10-24T11:06:36.287Z,1.47
2022-10-24T11:09:31.194Z,1.40
2022-10-24T11:12:03.969Z,1.10
2022-10-24T11:14:34.974Z,1.30
2022-10-24T11:17:12.817Z,1.07
2022-10-24T11:19:57.944Z,1.50
2022-10-24T11:22:32.462Z,1.00
2022-10-24T11:25:04.223Z,1.10
2022-10-24T11:27:36.317Z,0.97
2022-10-24T11:30:07.254Z,0.70
2022-10-24T11:32:38.617Z,0.90
2022-10-24T11:35:25.159Z,1.13
2022-10-24T11:37:56.854Z,1.10
2022-10-24T11:40:25.842Z,1.00
2022-10-24T11:42:57.747Z,1.13
2022-10-24T11:45:28.665Z,1.10
2022-10-24T11:48:03.428Z,0.97
2022-10-24T11:50:35.808Z,1.20
2022-10-24T11:53:17.610Z,1.17
2022-10-24T11:55:49.106Z,1.10
2022-10-24T11:58:19.960Z,1.10
2022-10-24T12:01:07.740Z,1.20
2022-10-24T12:04:06.206Z,1.00
2022-10-24T12:06:58.582Z,1.50
2022-10-24T12:09:58.393Z,0.90
2022-10-24T12:12:38.577Z,0.97
2022-10-24T12:15:19.215Z,0.90
2022-10-24T12:18:04.549Z,1.20
2022-10-24T12:20:33.149Z,0.90
2022-10-24T12:23:02.313Z,0.93
2022-10-24T12:25:33.339Z,0.80
2022-10-24T12:28:03.166Z,1.00
2022-10-24T12:30:32.722Z,1.03
2022-10-24T12:33:10.829Z,1.23
2022-10-24T12:35:51.977Z,0.97
2022-10-24T12:39:04.163Z,0.90
2022-10-24T12:41:44.218Z,0.90
2022-10-24T12:44:42.212Z,1.17
2022-10-24T12:47:35.066Z,0.60
2022-10-24T12:50:40.177Z,1.00
2022-10-24T12:53:19.810Z,0.97
2022-10-24T12:56:08.445Z,0.73
2022-10-24T12:58:39.002Z,0.97
2022-10-24T13:01:12.100Z,1.00
2022-10-24T13:03:55.545Z,0.87
2022-10-24T13:06:27.709Z,1.00
2022-10-24T13:09:22.009Z,0.90
2022-10-24T13:12:01.774Z,1.20
2022-10-24T13:14:45.690Z,1.07
2022-10-24T13:17:17.123Z,0.90
2022-10-24T13:19:45.213Z,1.40
2022-10-24T13:22:29.098Z,0.97
2022-10-24T13:24:57.691Z,0.80
2022-10-24T13:27:31.713Z,0.90
2022-10-24T13:30:24.153Z,1.27
2022-10-24T13:32:52.237Z,1.43
2022-10-24T13:35:25.495Z,1.00
2022-10-24T13:38:00.511Z,1.10
2022-10-24T13:40:31.299Z,1.17
2022-10-24T13:43:03.783Z,1.10
2022-10-24T13:45:42.438Z,0.97
2022-10-24T13:48:13.342Z,1.30
2022-10-24T13:50:49.599Z,1.17
2022-10-24T13:53:29.513Z,0.90
2022-10-24T13:56:00.798Z,1.33
2022-10-24T13:58:32.485Z,1.10
2022-10-24T14:01:07.137Z,0.90
2022-10-24T14:03:36.933Z,1.27
2022-10-24T14:06:08.428Z,0.87
2022-10-24T14:08:38.819Z,1.07
2022-10-24T14:11:09.158Z,1.10
2022-10-24T14:13:39.934Z,1.00
2022-10-24T14:16:09.717Z,1.10
2022-10-24T14:18:39.472Z,1.10
2022-10-24T14:21:07.456Z,0.73
2022-10-24T14:23:39.143Z,1.47
2022-10-24T14:26:08.849Z,0.93
2022-10-24T14:28:39.059Z,1.20
2022-10-24T14:31:14.955Z,0.80
2022-10-24T14:33:45.158Z,1.10
2022-10-24T14:36:14.286Z,0.90
2022-10-24T14:38:43.015Z,1.10
2022-10-24T14:41:11.253Z,0.90
2022-10-24T14:43:42.498Z,3.37
2022-10-24T14:46:35.410Z,2.00
2022-10-24T14:49:21.158Z,1.10
2022-10-24T14:51:49.769Z,0.80
2022-10-24T14:54:21.202Z,1.37
2022-10-24T14:56:49.837Z,1.07
2022-10-24T14:59:23.229Z,1.03
2022-10-24T15:02:02.033Z,1.33
2022-10-24T15:04:31.669Z,0.90
2022-10-24T15:06:59.581Z,1.10
2022-10-24T15:09:27.455Z,0.90
2022-10-24T15:12:03.174Z,0.90
2022-10-24T15:14:38.810Z,1.10
2022-10-24T15:17:32.833Z,1.57
2022-10-24T15:20:15.242Z,1.30
2022-10-24T15:22:47.881Z,1.50
2022-10-24T15:27:49.741Z,1.10
2022-10-24T15:30:20.305Z,1.10
2022-10-24T15:32:50.896Z,1.70
2022-10-24T15:35:19.322Z,1.10
2022-10-24T15:37:54.833Z,0.63
2022-10-24T15:40:24.295Z,1.00
2022-10-24T15:42:52.349Z,1.13
2022-10-24T15:45:21.122Z,0.87
2022-10-24T15:47:51.238Z,1.00
2022-10-24T15:50:20.884Z,1.13
2022-10-24T15:52:52.397Z,1.20
2022-10-24T15:55:22.351Z,1.47
2022-10-24T15:57:50.735Z,1.30
2022-10-24T16:00:20.911Z,1.40
2022-10-24T16:02:51.410Z,0.90
2022-10-24T16:05:22.393Z,1.30
2022-10-24T16:07:52.102Z,1.43
2022-10-24T16:10:21.462Z,1.30
2022-10-24T16:12:50.078Z,1.20
2022-10-24T16:15:21.753Z,2.10
2022-10-24T16:17:53.679Z,1.53
2022-10-24T16:20:22.266Z,1.23
2022-10-24T16:22:51.224Z,1.43
2022-10-24T16:25:20.837Z,1.20
2022-10-24T16:27:49.335Z,1.50
2022-10-24T16:30:18.418Z,1.67
2022-10-24T16:32:47.155Z,1.47
2022-10-24T16:35:20.052Z,1.10
2022-10-24T16:37:47.991Z,0.97
2022-10-24T16:40:15.958Z,1.40
2022-10-24T16:42:44.063Z,1.20
2022-10-24T16:45:12.595Z,1.03
2022-10-24T16:47:40.484Z,0.97
2022-10-24T16:50:09.614Z,0.87
2022-10-24T16:52:38.922Z,1.33
2022-10-24T16:55:07.418Z,0.97
2022-10-24T16:57:35.359Z,1.20
2022-10-24T17:00:03.432Z,1.20
2022-10-24T17:02:31.494Z,1.20
2022-10-24T17:04:59.409Z,1.00
2022-10-24T17:07:27.359Z,1.30
2022-10-24T17:09:56.620Z,1.10
2022-10-24T17:12:25.195Z,1.23
2022-10-24T17:14:53.138Z,1.03
2022-10-24T17:17:21.400Z,1.10
2022-10-24T17:19:49.468Z,1.37
2022-10-24T17:22:17.581Z,1.23
2022-10-24T17:24:45.727Z,1.20
2022-10-24T17:27:16.417Z,1.70
2022-10-24T17:29:45.554Z,1.27
2022-10-24T17:32:14.395Z,1.07
2022-10-24T17:34:43.478Z,1.00
2022-10-24T17:37:19.199Z,1.13
2022-10-24T17:39:50.598Z,1.30
2022-10-24T17:42:21.289Z,1.10
2022-10-24T17:44:49.813Z,1.10
2022-10-24T17:47:17.977Z,1.00
2022-10-24T17:49:46.043Z,1.10
2022-10-24T17:52:15.341Z,1.10
2022-10-24T17:54:45.739Z,1.20
2022-10-24T17:57:13.892Z,1.20
2022-10-24T17:59:43.200Z,1.20
2022-10-24T18:02:13.290Z,1.37
2022-10-24T18:04:42.933Z,1.40
2022-10-24T18:07:10.956Z,1.30
2022-10-24T18:09:40.139Z,1.13
2022-10-24T18:12:08.365Z,1.07
2022-10-24T18:14:37.416Z,1.30
2022-10-24T18:17:06.695Z,1.33
2022-10-24T18:19:34.678Z,0.87
2022-10-24T18:22:03.030Z,1.20
2022-10-24T18:24:30.941Z,1.23
2022-10-24T18:26:58.872Z,1.10
2022-10-24T18:29:26.913Z,1.40
2022-10-24T18:31:54.814Z,1.10
2022-10-24T18:34:24.558Z,1.30
2022-10-24T18:36:52.433Z,1.27
2022-10-24T18:39:20.455Z,1.17
2022-10-24T18:41:49.703Z,1.20
2022-10-24T18:44:28.930Z,1.33
2022-10-24T18:46:58.840Z,1.30
2022-10-24T18:49:28.870Z,1.67
2022-10-24T18:52:03.906Z,1.20
2022-10-24T18:54:32.056Z,1.30
2022-10-24T18:57:00.850Z,1.50
2022-10-24T18:59:30.864Z,1.10
2022-10-24T19:02:07.447Z,1.10
2022-10-24T19:04:39.858Z,1.23
2022-10-24T19:07:10.083Z,1.37
2022-10-24T19:09:38.237Z,1.53
2022-10-24T19:12:07.136Z,1.50
2022-10-24T19:14:35.662Z,1.30
2022-10-24T19:17:03.802Z,1.40
2022-10-24T19:19:34.621Z,1.40
2022-10-24T19:22:04.187Z,1.30
2022-10-24T19:24:32.311Z,1.40
2022-10-24T19:27:00.190Z,1.37
2022-10-24T19:29:28.086Z,1.30
2022-10-24T19:31:55.966Z,1.30
2022-10-24T19:34:23.898Z,1.40
2022-10-24T19:36:51.818Z,1.40
2022-10-24T19:39:21.298Z,1.10
2022-10-24T19:41:49.203Z,1.43
2022-10-24T19:44:17.241Z,1.30
2022-10-24T19:46:45.170Z,1.50
2022-10-24T19:49:13.546Z,1.57
2022-10-24T19:51:41.532Z,1.60
2022-10-24T19:54:09.934Z,1.40
2022-10-24T19:56:39.207Z,1.23
2022-10-24T19:59:07.093Z,1.57
2022-10-24T20:01:35.288Z,1.77
2022-10-24T20:04:03.253Z,1.30
2022-10-24T20:06:31.524Z,1.60
2022-10-24T20:09:00.801Z,1.53
2022-10-24T20:11:28.918Z,1.27
2022-10-24T20:13:58.193Z,1.40
2022-10-24T20:16:26.083Z,1.63
2022-10-24T20:18:53.992Z,1.70
2022-10-24T20:21:21.931Z,1.80
2022-10-24T20:23:49.989Z,1.73
2022-10-24T20:26:20.087Z,1.57
2022-10-24T20:28:50.037Z,1.70
2022-10-24T20:31:24.546Z,1.60
2022-10-24T20:33:52.651Z,1.43
2022-10-24T20:36:21.891Z,1.50
2022-10-24T20:38:50.128Z,1.60
2022-10-24T20:41:18.049Z,1.50
2022-10-24T20:43:46.180Z,1.73
2022-10-24T20:46:14.115Z,1.50
2022-10-24T20:48:43.354Z,1.70
2022-10-24T20:51:12.629Z,1.40
2022-10-24T20:53:41.193Z,1.83
2022-10-24T20:56:10.603Z,2.03
2022-10-24T20:58:39.572Z,1.63
2022-10-24T21:01:08.787Z,1.70
2022-10-24T21:03:37.277Z,1.83
2022-10-24T21:06:07.861Z,2.00
2022-10-24T21:08:35.757Z,1.60
2022-10-24T21:11:07.375Z,1.57
2022-10-24T21:13:35.468Z,1.87
2022-10-24T21:16:03.366Z,1.87
2022-10-24T21:18:31.250Z,1.90
2022-10-24T21:20:59.158Z,1.60
2022-10-24T21:23:28.451Z,1.90
2022-10-24T21:26:03.120Z,1.67
2022-10-24T21:28:31.201Z,1.90
2022-10-24T21:30:59.516Z,1.80
2022-10-24T21:33:27.557Z,2.00
2022-10-24T21:35:55.426Z,2.20
2022-10-24T21:38:23.477Z,1.90
2022-10-24T21:41:00.713Z,1.93
2022-10-24T21:43:28.792Z,2.10
2022-10-24T21:46:03.170Z,2.63
2022-10-24T21:48:31.953Z,2.20
2022-10-24T21:51:04.653Z,2.03
2022-10-24T21:53:32.722Z,2.07
2022-10-24T21:56:06.542Z,2.10
2022-10-24T21:58:34.473Z,1.93
2022-10-24T22:01:02.596Z,2.00
2022-10-24T22:03:30.555Z,2.50
2022-10-24T22:05:58.821Z,1.80
2022-10-24T22:08:26.709Z,2.70
2022-10-24T22:10:59.166Z,2.00
2022-10-24T22:13:28.530Z,2.30
2022-10-24T22:15:56.544Z,2.00
2022-10-24T22:18:26.275Z,1.67
2022-10-24T22:20:54.274Z,1.97
2022-10-24T22:23:22.200Z,1.90
2022-10-24T22:25:50.102Z,1.77
2022-10-24T22:28:18.791Z,2.10
2022-10-24T22:30:49.157Z,1.93
2022-10-24T22:33:20.283Z,2.23
2022-10-24T22:35:51.560Z,2.37
2022-10-24T22:38:19.904Z,1.83
2022-10-24T22:40:48.293Z,1.50
2022-10-24T22:43:16.689Z,1.90
2022-10-24T22:45:51.955Z,1.83
2022-10-24T22:48:22.311Z,1.30
2022-10-24T22:50:52.036Z,1.90
2022-10-24T22:53:22.144Z,1.60
2022-10-24T22:56:04.472Z,1.63
2022-10-24T22:58:32.929Z,2.20
2022-10-24T23:01:05.751Z,2.17
2022-10-24T23:03:41.085Z,2.10
2022-10-24T23:06:13.901Z,1.80
2022-10-24T23:08:43.906Z,1.67
2022-10-24T23:11:13.273Z,1.80
2022-10-24T23:13:42.116Z,1.67
2022-10-24T23:16:23.102Z,1.60
2022-10-24T23:18:51.646Z,1.80
2022-10-24T23:21:22.594Z,1.83
2022-10-24T23:23:51.054Z,2.10
2022-10-24T23:26:34.908Z,1.43
2022-10-24T23:29:09.134Z,2.30
2022-10-24T23:31:39.043Z,1.77
2022-10-24T23:34:07.469Z,1.80
2022-10-24T23:36:36.030Z,1.63
2022-10-24T23:39:04.318Z,1.80
2022-10-24T23:41:32.746Z,2.00
2022-10-24T23:44:01.241Z,2.20
2022-10-24T23:46:35.190Z,1.63
2022-10-24T23:49:21.065Z,2.40
2022-10-24T23:51:54.768Z,2.10
2022-10-24T23:54:27.076Z,1.73
2022-10-24T23:56:55.475Z,2.27
2022-10-24T23:59:23.349Z,1.97
